Time;durP1;ratioP1;P1;durP2;ratioP2;P2;SDS_P1;SDS_P2;PMS_P1;PMS_P2;Temp;Humidity;BMP_temperature;BMP_pressure;BME280_temperature;BME280_humidity;BME280_pressure;Samples;Min_cycle;Max_cycle;Signal;HPM_P1;HPM_P2
2023/07/23 00:01:20;;;;;;;12.43;9.15;;;;;;;15.46;80.53;99420.69;5054650;28;20032;-78
2023/07/23 00:03:45;;;;;;;10.63;8.27;;;;;;;15.46;80.91;99415.44;5053875;28;20021;-78
2023/07/23 00:06:10;;;;;;;13.45;8.80;;;;;;;15.74;80.85;99449.41;5054251;28;20123;-78
2023/07/23 00:08:36;;;;;;;12.90;8.27;;;;;;;15.77;80.64;99444.78;5054530;28;20086;-78
2023/07/23 00:11:01;;;;;;;13.52;8.45;;;;;;;15.70;80.72;99425.97;5054597;28;20461;-78
2023/07/23 00:13:27;;;;;;;12.38;8.05;;;;;;;15.71;80.53;99411.06;5054904;28;20477;-78
2023/07/23 00:15:52;;;;;;;11.00;8.40;;;;;;;15.78;80.32;99409.69;5054598;28;20036;-78
2023/07/23 00:18:17;;;;;;;11.45;8.00;;;;;;;15.78;80.30;99411.47;5054273;28;20025;-78
2023/07/23 00:20:43;;;;;;;10.55;7.75;;;;;;;15.81;79.84;99401.59;5054566;28;20056;-78
2023/07/23 00:23:08;;;;;;;11.13;8.38;;;;;;;15.82;80.20;99405.06;5054102;28;20025;-78
2023/07/23 00:25:33;;;;;;;11.95;8.25;;;;;;;15.89;81.06;99420.28;5054842;28;20029;-78
2023/07/23 00:27:59;;;;;;;10.05;7.43;;;;;;;15.80;80.56;99401.69;5054467;28;20021;-78
2023/07/23 00:30:24;;;;;;;8.38;6.90;;;;;;;15.90;80.30;99410.59;5054308;28;20029;-78
2023/07/23 00:32:50;;;;;;;10.40;6.82;;;;;;;15.78;80.64;99395.72;5054298;28;20470;-78
2023/07/23 00:35:15;;;;;;;11.52;7.38;;;;;;;15.77;80.71;99400.13;5053922;28;20380;-78
2023/07/23 00:37:40;;;;;;;11.18;7.40;;;;;;;15.81;80.89;99408.63;5053885;28;20162;-78
2023/07/23 00:40:06;;;;;;;9.88;7.65;;;;;;;15.68;81.11;99392.94;5053741;28;20036;-78
2023/07/23 00:42:33;;;;;;;10.18;7.13;;;;;;;15.67;81.22;99393.84;5053896;28;20036;-78
2023/07/23 00:44:58;;;;;;;10.35;7.22;;;;;;;15.70;81.14;99401.53;5054048;28;20029;-77
2023/07/23 00:47:24;;;;;;;10.95;7.53;;;;;;;15.78;81.54;99414.94;5053732;28;20174;-78
2023/07/23 00:49:50;;;;;;;11.07;7.20;;;;;;;15.69;81.38;99399.84;5053901;28;20020;-78
2023/07/23 00:52:15;;;;;;;10.85;7.60;;;;;;;15.56;81.71;99383.28;5053769;28;20029;-78
2023/07/23 00:54:41;;;;;;;9.10;6.97;;;;;;;15.63;81.81;99397.63;5002182;28;20048;-78
2023/07/23 00:57:07;;;;;;;8.70;6.82;;;;;;;15.57;81.82;99384.94;5053638;28;20477;-78
2023/07/23 00:59:33;;;;;;;12.43;6.85;;;;;;;15.48;82.06;99368.91;5053725;28;20025;-78
2023/07/23 01:01:59;;;;;;;8.02;6.80;;;;;;;15.44;82.36;99367.44;5053704;28;20024;-77
2023/07/23 01:04:26;;;;;;;7.55;6.47;;;;;;;15.32;82.59;99355.19;5053337;28;20459;-78
2023/07/23 01:06:53;;;;;;;7.70;6.10;;;;;;;15.34;82.84;99363.81;5053766;28;20033;-78
2023/07/23 01:09:20;;;;;;;6.72;5.93;;;;;;;15.40;82.49;99362.53;5053440;28;20025;-78
2023/07/23 01:11:46;;;;;;;10.23;6.15;;;;;;;15.50;82.50;99384.53;5053621;28;20029;-78
2023/07/23 01:14:12;;;;;;;7.82;6.20;;;;;;;15.48;82.24;99366.28;5053269;28;20037;-78
2023/07/23 01:16:37;;;;;;;6.95;5.68;;;;;;;15.58;82.19;99382.19;5053222;28;20055;-78
2023/07/23 01:19:03;;;;;;;8.63;6.60;;;;;;;15.58;82.51;99374.31;5053183;28;20066;-78
2023/07/23 01:21:28;;;;;;;8.52;5.93;;;;;;;15.46;82.61;99357.69;5053004;28;20040;-78
2023/07/23 01:23:54;;;;;;;8.35;5.72;;;;;;;15.39;82.94;99340.69;5053375;28;20480;-78
2023/07/23 01:26:20;;;;;;;8.40;6.00;;;;;;;15.54;82.78;99370.22;5053122;28;20477;-78
2023/07/23 01:28:45;;;;;;;7.65;5.80;;;;;;;15.53;83.14;99365.09;5053208;28;20028;-78
2023/07/23 01:31:12;;;;;;;7.32;6.05;;;;;;;15.46;83.09;99352.44;5053015;28;20029;-78
2023/07/23 01:33:39;;;;;;;7.18;5.82;;;;;;;15.39;83.08;99335.44;5053129;28;20539;-78
2023/07/23 01:36:05;;;;;;;8.50;5.63;;;;;;;15.34;83.04;99332.31;5053003;28;20543;-78
2023/07/23 01:38:31;;;;;;;8.82;5.72;;;;;;;15.41;83.13;99340.56;5052965;28;20021;-78
2023/07/23 01:40:57;;;;;;;7.85;5.97;;;;;;;15.33;83.17;99328.00;5053001;28;20044;-78
2023/07/23 01:43:24;;;;;;;7.35;5.50;;;;;;;15.41;83.35;99338.78;5052804;28;20029;-78
2023/07/23 01:45:49;;;;;;;6.80;5.50;;;;;;;15.29;83.28;99321.28;5053045;28;20163;-78
2023/07/23 01:48:15;;;;;;;6.95;5.82;;;;;;;15.42;83.81;99337.84;5052491;28;20452;-78
2023/07/23 01:50:41;;;;;;;8.52;6.30;;;;;;;15.41;83.71;99344.03;5052612;28;20358;-78
2023/07/23 01:53:07;;;;;;;6.78;5.70;;;;;;;15.37;84.12;99347.81;5052571;28;20029;-78
2023/07/23 01:55:33;;;;;;;6.88;5.57;;;;;;;15.19;84.03;99318.47;5052383;28;20492;-78
2023/07/23 01:57:59;;;;;;;7.47;5.85;;;;;;;15.21;84.10;99316.59;5052602;28;20033;-78
2023/07/23 02:00:24;;;;;;;7.55;5.82;;;;;;;15.25;84.85;99321.63;5052288;28;20027;-78
2023/07/23 02:02:50;;;;;;;7.80;6.50;;;;;;;15.36;84.79;99337.44;5052413;28;20107;-78
2023/07/23 02:05:17;;;;;;;7.28;5.55;;;;;;;15.39;84.54;99337.22;5034125;28;20033;-78
2023/07/23 02:07:43;;;;;;;8.13;5.78;;;;;;;15.39;84.82;99343.31;5052514;28;20036;-78
2023/07/23 02:10:11;;;;;;;7.28;6.28;;;;;;;15.35;84.73;99331.34;5052496;28;20029;-78
2023/07/23 02:12:36;;;;;;;7.38;5.47;;;;;;;15.21;84.59;99300.00;5052434;28;20075;-78
2023/07/23 02:15:01;;;;;;;7.70;6.00;;;;;;;15.50;84.64;99329.41;5052243;28;20033;-78
2023/07/23 02:17:27;;;;;;;9.20;6.00;;;;;;;15.55;85.04;99331.69;5052064;28;20045;-78
2023/07/23 02:19:52;;;;;;;6.82;5.70;;;;;;;15.63;84.98;99326.72;5051990;28;20461;-78
2023/07/23 02:22:18;;;;;;;9.68;6.03;;;;;;;15.60;84.82;99326.97;5052061;28;20421;-78
2023/07/23 02:24:43;;;;;;;6.78;5.97;;;;;;;15.60;85.06;99322.56;5052010;28;20043;-78
2023/07/23 02:27:10;;;;;;;8.50;6.13;;;;;;;15.74;85.10;99326.84;5051528;28;20037;-78
2023/07/23 02:29:36;;;;;;;8.05;6.35;;;;;;;15.74;84.97;99326.84;5052075;28;20024;-78
2023/07/23 02:32:01;;;;;;;9.85;6.30;;;;;;;15.70;85.09;99326.22;5052009;28;20082;-78
2023/07/23 02:34:27;;;;;;;8.00;6.18;;;;;;;15.62;84.92;99297.03;5051533;28;20057;-78
2023/07/23 02:36:52;;;;;;;6.50;5.60;;;;;;;15.71;84.61;99304.25;5052139;28;20056;-78
2023/07/23 02:39:18;;;;;;;7.50;6.30;;;;;;;15.76;84.68;99298.69;5051819;28;20055;-78
2023/07/23 02:41:43;;;;;;;6.45;5.75;;;;;;;15.94;84.94;99323.59;5051860;28;20029;-78
2023/07/23 02:44:08;;;;;;;7.10;6.28;;;;;;;15.81;85.30;99301.81;5052074;28;20025;-78
2023/07/23 02:46:34;;;;;;;8.70;6.55;;;;;;;15.93;85.59;99319.28;5051429;28;20029;-78
2023/07/23 02:48:59;;;;;;;6.88;6.10;;;;;;;15.86;85.60;99306.72;5051683;28;20021;-78
2023/07/23 02:51:24;;;;;;;7.95;6.65;;;;;;;15.86;85.87;99304.09;5051818;28;20036;-78
2023/07/23 02:53:50;;;;;;;8.68;6.13;;;;;;;15.89;85.72;99307.34;5051923;28;20052;-78
2023/07/23 02:56:15;;;;;;;9.15;7.10;;;;;;;15.99;85.90;99325.03;5051444;28;20033;-78
2023/07/23 02:58:41;;;;;;;8.55;6.63;;;;;;;15.89;86.00;99304.72;5051655;28;20032;-78
2023/07/23 03:01:06;;;;;;;7.30;6.25;;;;;;;15.91;85.95;99308.03;5051600;28;20073;-78
2023/07/23 03:03:31;;;;;;;6.95;6.18;;;;;;;15.84;86.15;99290.22;5051334;28;20492;-78
2023/07/23 03:05:57;;;;;;;8.80;6.80;;;;;;;15.98;86.12;99307.59;5051779;28;20025;-78
2023/07/23 03:08:22;;;;;;;11.88;7.15;;;;;;;16.04;86.64;99313.22;5051529;28;20107;-78
2023/07/23 03:10:48;;;;;;;9.13;6.68;;;;;;;15.98;86.25;99295.31;5051747;28;20388;-78
2023/07/23 03:13:13;;;;;;;11.85;7.07;;;;;;;16.08;86.26;99316.47;5051291;28;20025;-78
2023/07/23 03:15:38;;;;;;;10.13;6.40;;;;;;;15.96;86.22;99289.31;5051236;28;20455;-78
2023/07/23 03:18:04;;;;;;;6.93;6.10;;;;;;;15.81;86.35;99258.97;5051275;28;20028;-78
2023/07/23 03:20:29;;;;;;;7.85;7.00;;;;;;;15.92;86.55;99279.97;5051428;28;20033;-78
2023/07/23 03:22:55;;;;;;;7.50;6.57;;;;;;;15.86;86.69;99270.78;5051739;28;20071;-78
2023/07/23 03:25:20;;;;;;;8.55;6.80;;;;;;;16.01;86.64;99283.72;5051323;28;20032;-78
2023/07/23 03:27:46;;;;;;;8.43;6.07;;;;;;;15.99;86.72;99281.22;5051519;28;20561;-78
2023/07/23 03:30:11;;;;;;;7.88;6.18;;;;;;;16.09;86.44;99297.94;5051478;28;20033;-78
2023/07/23 03:32:38;;;;;;;8.43;6.57;;;;;;;16.12;86.95;99295.09;5051055;28;20641;-78
2023/07/23 03:35:03;;;;;;;8.00;6.32;;;;;;;16.07;86.53;99285.91;5051482;28;20102;-78
2023/07/23 03:37:29;;;;;;;9.02;7.18;;;;;;;16.05;86.71;99278.13;5051132;28;20021;-79
2023/07/23 03:39:54;;;;;;;8.98;6.00;;;;;;;16.01;86.57;99266.16;5054804;28;20569;-79
2023/07/23 03:42:20;;;;;;;10.40;6.72;;;;;;;16.09;86.67;99279.56;5054883;28;20028;-79
2023/07/23 03:44:45;;;;;;;7.38;6.40;;;;;;;16.18;87.29;99297.28;5054972;28;20028;-79
2023/07/23 03:47:13;;;;;;;9.93;6.57;;;;;;;16.08;87.24;99270.00;5054585;28;20025;-78
2023/07/23 03:49:39;;;;;;;7.40;6.68;;;;;;;16.16;87.08;99282.56;5054622;28;20469;-79
2023/07/23 03:52:05;;;;;;;6.50;5.82;;;;;;;16.22;87.02;99289.97;5055007;28;20048;-78
2023/07/23 03:54:32;;;;;;;8.10;6.18;;;;;;;16.03;87.43;99239.78;5054511;28;20083;-78
2023/07/23 03:56:57;;;;;;;7.13;6.20;;;;;;;16.26;87.21;99266.94;5054893;28;20028;-79
2023/07/23 03:59:28;;;;;;;6.82;5.90;;;;;;;16.31;86.89;99276.16;5054924;28;20115;-79
2023/07/23 04:01:54;;;;;;;8.57;7.20;;;;;;;16.29;86.81;99269.34;5054733;28;20025;-79
2023/07/23 04:04:19;;;;;;;8.32;6.22;;;;;;;16.21;86.65;99264.66;5054732;28;20032;-79
2023/07/23 04:06:44;;;;;;;7.00;6.30;;;;;;;16.30;86.91;99274.47;5054762;28;20035;-78
2023/07/23 04:09:09;;;;;;;6.80;6.10;;;;;;;16.28;87.08;99272.94;5054547;28;20440;-78
2023/07/23 04:11:35;;;;;;;8.73;6.40;;;;;;;16.19;87.42;99270.03;5002573;28;20068;-78
2023/07/23 04:14:00;;;;;;;9.45;6.30;;;;;;;16.15;87.36;99259.88;5054513;28;20480;-78
2023/07/23 04:16:25;;;;;;;8.02;6.72;;;;;;;16.26;87.53;99274.81;5054005;28;20420;-78
2023/07/23 04:18:51;;;;;;;9.13;6.88;;;;;;;16.15;87.23;99244.97;5054876;28;20032;-78
2023/07/23 04:21:23;;;;;;;7.35;6.47;;;;;;;16.30;87.07;99281.53;5054452;28;20044;-79
2023/07/23 04:23:50;;;;;;;7.50;6.57;;;;;;;16.25;87.43;99274.00;5054417;28;20017;-78
2023/07/23 04:26:17;;;;;;;7.35;5.72;;;;;;;16.38;87.32;99269.47;5054303;28;20094;-78
2023/07/23 04:28:43;;;;;;;7.55;6.25;;;;;;;16.48;87.02;99267.00;5054134;28;20112;-78
2023/07/23 04:31:09;;;;;;;10.07;6.68;;;;;;;16.47;86.58;99246.88;5054373;28;20064;-78
2023/07/23 04:33:34;;;;;;;6.60;5.68;;;;;;;16.65;86.39;99252.53;5054058;28;20583;-78
2023/07/23 04:36:00;;;;;;;8.23;7.32;;;;;;;16.90;85.47;99273.34;5054066;28;20389;-78
2023/07/23 04:38:25;;;;;;;7.55;6.43;;;;;;;17.07;85.31;99279.09;5053880;28;20384;-78
2023/07/23 04:40:51;;;;;;;8.40;5.65;;;;;;;17.06;85.17;99264.22;5053965;28;20029;-78
2023/07/23 04:43:16;;;;;;;7.03;5.85;;;;;;;17.19;85.15;99268.41;5053937;28;20028;-78
2023/07/23 04:45:41;;;;;;;7.95;6.95;;;;;;;17.06;85.20;99251.91;5053681;28;20108;-79
2023/07/23 04:48:10;;;;;;;7.78;6.10;;;;;;;17.17;85.75;99277.38;5054052;28;20021;-79
2023/07/23 04:50:36;;;;;;;7.13;5.95;;;;;;;17.14;85.67;99275.00;5052939;28;20033;-79
2023/07/23 04:53:01;;;;;;;6.57;5.57;;;;;;;17.04;85.35;99255.63;5053833;28;20025;-79
2023/07/23 04:55:26;;;;;;;7.88;6.30;;;;;;;17.13;85.46;99268.06;5053470;28;20029;-79
2023/07/23 04:57:52;;;;;;;7.00;6.30;;;;;;;17.13;85.87;99273.31;5053645;28;20473;-79
2023/07/23 05:00:17;;;;;;;7.60;5.82;;;;;;;17.06;86.04;99269.50;5035638;28;20047;-79
2023/07/23 05:02:42;;;;;;;8.23;6.13;;;;;;;16.88;86.15;99248.94;5053455;28;20025;-79
2023/07/23 05:05:08;;;;;;;7.85;5.97;;;;;;;17.10;86.15;99276.19;5053623;28;20111;-79
2023/07/23 05:07:33;;;;;;;6.55;5.53;;;;;;;16.97;86.10;99252.66;5053321;28;20032;-79
2023/07/23 05:09:59;;;;;;;7.18;5.82;;;;;;;16.96;86.06;99253.63;5053487;28;20024;-79
2023/07/23 05:12:24;;;;;;;8.38;5.95;;;;;;;17.10;85.77;99271.75;5053198;28;20076;-79
2023/07/23 05:14:49;;;;;;;6.18;5.57;;;;;;;17.03;86.16;99259.25;5053424;28;20112;-79
2023/07/23 05:17:15;;;;;;;6.82;5.43;;;;;;;17.02;85.75;99234.69;5053555;28;20485;-79
2023/07/23 05:19:40;;;;;;;7.80;5.47;;;;;;;17.19;85.70;99243.88;5052997;28;20404;-79
2023/07/23 05:22:06;;;;;;;8.70;5.75;;;;;;;17.24;85.15;99249.63;5053486;28;20054;-79
2023/07/23 05:24:31;;;;;;;6.88;5.93;;;;;;;17.32;85.31;99241.94;5052974;28;20349;-77
2023/07/23 05:26:57;;;;;;;7.18;6.13;;;;;;;17.49;84.68;99247.59;5053525;28;20041;-77
2023/07/23 05:29:22;;;;;;;6.60;5.60;;;;;;;17.67;83.92;99262.75;5052634;28;20021;-77
2023/07/23 05:31:49;;;;;;;6.35;5.53;;;;;;;17.51;84.19;99204.41;5053330;28;20029;-77
2023/07/23 05:34:15;;;;;;;6.57;5.20;;;;;;;17.80;83.69;99228.38;5053186;28;20033;-77
2023/07/23 05:36:40;;;;;;;6.60;5.70;;;;;;;17.91;82.54;99230.94;5052906;28;20540;-77
2023/07/23 05:39:05;;;;;;;7.35;5.85;;;;;;;18.03;82.59;99234.34;5052843;28;20021;-77
2023/07/23 05:41:31;;;;;;;6.55;5.50;;;;;;;18.37;81.65;99253.44;5052661;28;20021;-77
2023/07/23 05:43:56;;;;;;;7.10;6.28;;;;;;;18.51;80.91;99238.22;5053051;28;20021;-77
2023/07/23 05:46:21;;;;;;;6.10;5.38;;;;;;;18.80;80.42;99257.69;5052983;28;20033;-77
2023/07/23 05:48:48;;;;;;;7.78;5.75;;;;;;;18.92;79.94;99234.66;5052602;28;20017;-78
2023/07/23 05:51:14;;;;;;;7.22;5.75;;;;;;;19.34;78.65;99245.88;5053160;28;20362;-76
2023/07/23 05:53:39;;;;;;;6.82;5.32;;;;;;;19.80;77.15;99251.44;5052548;28;20028;-77
2023/07/23 05:56:05;;;;;;;5.85;5.05;;;;;;;20.25;76.23;99245.56;5052598;28;20033;-78
2023/07/23 05:58:31;;;;;;;6.85;4.93;;;;;;;20.54;73.38;99230.47;5052010;28;20056;-80
2023/07/23 06:00:56;;;;;;;5.60;5.10;;;;;;;21.06;73.27;99256.41;5052636;28;20170;-78
2023/07/23 06:03:22;;;;;;;5.97;4.68;;;;;;;21.24;72.70;99222.84;5051836;28;20021;-77
2023/07/23 06:05:48;;;;;;;5.13;4.63;;;;;;;21.61;70.94;99251.03;5052330;28;20031;-79
2023/07/23 06:08:13;;;;;;;7.60;4.40;;;;;;;21.77;69.00;99255.66;5052334;28;20025;-77
2023/07/23 06:10:39;;;;;;;5.72;4.90;;;;;;;21.93;69.08;99248.69;5051860;28;20029;-78
2023/07/23 06:13:04;;;;;;;5.93;4.57;;;;;;;22.14;68.86;99239.59;5052014;28;20029;-79
2023/07/23 06:15:29;;;;;;;5.00;4.30;;;;;;;22.30;68.01;99252.13;5051924;28;20036;-79
2023/07/23 06:17:55;;;;;;;5.57;4.70;;;;;;;22.19;67.58;99233.81;5051978;28;20063;-79
2023/07/23 06:20:20;;;;;;;4.85;4.40;;;;;;;22.42;67.68;99253.53;5051416;28;20481;-80
2023/07/23 06:22:45;;;;;;;4.68;4.25;;;;;;;22.39;67.65;99224.66;5050954;28;20139;-80
2023/07/23 06:25:11;;;;;;;6.32;4.55;;;;;;;22.62;67.28;99236.38;5051681;28;20064;-78
2023/07/23 06:27:36;;;;;;;5.65;5.05;;;;;;;22.84;66.35;99255.41;5032094;28;20484;-79
2023/07/23 06:30:02;;;;;;;6.13;5.03;;;;;;;22.74;66.90;99241.41;5032594;28;20471;-79
2023/07/23 06:32:27;;;;;;;5.78;4.75;;;;;;;22.47;67.19;99223.88;5031956;28;20021;-79
2023/07/23 06:34:53;;;;;;;5.80;4.97;;;;;;;22.39;68.03;99246.72;5032246;28;20083;-79
2023/07/23 06:37:18;;;;;;;5.10;4.60;;;;;;;22.19;68.56;99237.28;5032140;28;20029;-79
2023/07/23 06:39:43;;;;;;;5.57;4.28;;;;;;;22.15;68.98;99249.19;5039629;28;20063;-79
2023/07/23 06:42:08;;;;;;;6.78;4.60;;;;;;;21.89;69.72;99223.47;5051714;28;20021;-78
2023/07/23 06:44:34;;;;;;;5.63;5.00;;;;;;;21.84;70.23;99231.03;5051905;28;20107;-78
2023/07/23 06:46:59;;;;;;;5.20;4.57;;;;;;;21.81;71.38;99223.38;5051914;28;20044;-80
2023/07/23 06:49:28;;;;;;;4.90;4.40;;;;;;;21.83;71.41;99232.03;5051864;28;20063;-79
2023/07/23 06:51:55;;;;;;;5.22;4.72;;;;;;;21.72;72.27;99236.75;5051935;28;20025;-78
2023/07/23 06:54:21;;;;;;;5.97;5.15;;;;;;;21.69;72.52;99232.56;5051898;28;20029;-78
2023/07/23 06:56:46;;;;;;;6.10;5.05;;;;;;;21.37;72.17;99186.25;5051441;28;20032;-78
2023/07/23 06:59:11;;;;;;;5.22;4.65;;;;;;;21.73;72.87;99231.28;5051835;28;20102;-78
2023/07/23 07:01:37;;;;;;;4.70;4.25;;;;;;;21.66;72.42;99214.34;5051388;28;20599;-78
2023/07/23 07:04:02;;;;;;;5.13;4.63;;;;;;;21.92;72.47;99231.09;5051827;28;20021;-78
2023/07/23 07:06:27;;;;;;;5.15;4.47;;;;;;;22.16;72.74;99221.66;5051465;28;20029;-78
2023/07/23 07:08:53;;;;;;;5.32;4.82;;;;;;;22.50;71.93;99204.94;5051746;28;20384;-79
2023/07/23 07:11:19;;;;;;;5.22;4.30;;;;;;;23.09;70.13;99213.81;5051611;28;20033;-79
2023/07/23 07:13:44;;;;;;;5.53;5.03;;;;;;;23.64;68.33;99198.16;5052994;28;20082;-79
2023/07/23 07:16:10;;;;;;;5.55;5.05;;;;;;;24.32;66.42;99214.72;5055559;28;20044;-79
2023/07/23 07:18:35;;;;;;;4.88;4.45;;;;;;;25.02;64.67;99206.78;5055426;28;20017;-79
2023/07/23 07:21:02;;;;;;;4.93;4.43;;;;;;;26.50;63.88;99207.28;5055728;28;20029;-79
2023/07/23 07:23:29;;;;;;;4.82;4.32;;;;;;;29.31;59.23;99220.97;5055483;28;20086;-79
2023/07/23 07:25:55;;;;;;;4.18;3.78;;;;;;;31.71;53.18;99225.63;5055457;28;20025;-81
2023/07/23 07:28:21;;;;;;;4.18;3.83;;;;;;;33.06;50.22;99216.03;5055451;28;20033;-80
2023/07/23 07:30:46;;;;;;;5.65;4.20;;;;;;;33.81;48.33;99208.28;5055540;28;20400;-80
2023/07/23 07:33:12;;;;;;;4.68;4.10;;;;;;;34.60;46.81;99210.66;5055474;28;20032;-80
2023/07/23 07:35:37;;;;;;;4.20;3.65;;;;;;;36.10;45.42;99203.91;5055112;28;20163;-80
2023/07/23 07:38:03;;;;;;;5.30;4.35;;;;;;;35.90;43.51;99214.41;5055179;28;20075;-80
2023/07/23 07:40:29;;;;;;;4.03;3.72;;;;;;;35.11;45.17;99215.22;5055066;28;20036;-80
2023/07/23 07:42:54;;;;;;;4.57;4.18;;;;;;;34.93;45.40;99204.53;5055120;28;20021;-80
2023/07/23 07:45:20;;;;;;;3.80;3.50;;;;;;;35.90;44.44;99220.66;5055289;28;20027;-80
2023/07/23 07:47:45;;;;;;;3.55;3.25;;;;;;;35.75;43.56;99217.72;5054925;28;20028;-80
2023/07/23 07:50:10;;;;;;;4.05;3.65;;;;;;;35.13;43.30;99196.84;5055168;28;20110;-80
2023/07/23 07:52:35;;;;;;;4.53;4.13;;;;;;;34.03;44.66;99205.03;5054741;28;20036;-80
2023/07/23 07:55:01;;;;;;;4.50;3.63;;;;;;;32.72;45.90;99197.53;5054861;28;20103;-80
2023/07/23 07:57:27;;;;;;;4.88;4.00;;;;;;;31.71;47.37;99211.34;5054863;28;20025;-80
2023/07/23 07:59:53;;;;;;;4.50;4.10;;;;;;;30.86;48.41;99216.19;5054624;28;20083;-79
2023/07/23 08:02:19;;;;;;;4.03;3.63;;;;;;;29.93;49.56;99195.69;5054717;28;20109;-76
2023/07/23 08:04:44;;;;;;;4.38;3.70;;;;;;;29.20;51.13;99208.16;5054565;28;20063;-79
2023/07/23 08:07:10;;;;;;;4.30;3.90;;;;;;;28.58;52.01;99193.88;5054712;28;20518;-80
2023/07/23 08:09:37;;;;;;;4.60;3.90;;;;;;;28.30;52.22;99196.59;5054328;28;20082;-79
2023/07/23 08:12:05;;;;;;;4.63;3.80;;;;;;;28.49;52.88;99211.97;5052660;28;20033;-79
2023/07/23 08:14:33;;;;;;;3.95;3.50;;;;;;;28.81;52.65;99186.34;5054191;28;20028;-80
2023/07/23 08:16:58;;;;;;;4.20;3.80;;;;;;;29.54;52.14;99204.53;5053975;28;20077;-80
2023/07/23 08:19:24;;;;;;;3.58;3.28;;;;;;;29.63;51.23;99206.00;5054224;28;20116;-79
2023/07/23 08:21:50;;;;;;;3.92;3.63;;;;;;;29.72;50.65;99212.00;5053857;28;20032;-79
2023/07/23 08:24:16;;;;;;;3.80;3.50;;;;;;;29.78;50.24;99205.78;5053880;28;20033;-79
2023/07/23 08:26:42;;;;;;;6.25;4.00;;;;;;;29.51;49.19;99180.78;5017890;28;20095;-79
2023/07/23 08:29:09;;;;;;;3.58;3.28;;;;;;;29.53;49.89;99186.75;5053686;28;20457;-79
2023/07/23 08:31:35;;;;;;;3.63;3.33;;;;;;;29.52;49.71;99201.22;5052654;28;20075;-79
2023/07/23 08:34:04;;;;;;;4.22;3.72;;;;;;;29.24;49.50;99202.19;5053643;28;20060;-79
2023/07/23 08:36:31;;;;;;;3.88;3.58;;;;;;;29.26;49.48;99202.00;5053708;28;20024;-79
2023/07/23 08:38:57;;;;;;;3.67;3.38;;;;;;;29.27;49.53;99203.63;5053632;28;20116;-79
2023/07/23 08:41:31;;;;;;;3.80;3.50;;;;;;;29.40;49.65;99192.94;5053533;28;20035;-79
2023/07/23 08:44:31;;;;;;;5.22;4.03;;;;;;;29.47;49.07;99193.78;5053630;28;20099;-79
2023/07/23 08:47:10;;;;;;;4.85;4.00;;;;;;;29.40;49.65;99182.19;5053183;28;20040;-79
2023/07/23 08:49:39;;;;;;;3.92;3.63;;;;;;;29.38;50.02;99188.81;5053516;28;20076;-79
2023/07/23 08:52:05;;;;;;;3.80;3.50;;;;;;;29.49;49.71;99191.69;5054036;28;20033;-79
2023/07/23 08:54:32;;;;;;;3.95;3.08;;;;;;;29.45;49.14;99170.84;5053388;28;20389;-79
2023/07/23 08:56:58;;;;;;;6.50;4.07;;;;;;;29.44;48.95;99183.44;5052995;28;20035;-79
2023/07/23 08:59:26;;;;;;;6.82;4.07;;;;;;;29.38;49.07;99184.28;5053394;28;20025;-79
2023/07/23 09:01:53;;;;;;;4.50;3.42;;;;;;;29.41;49.97;99175.78;5052661;28;20055;-79
2023/07/23 09:04:18;;;;;;;5.25;4.10;;;;;;;29.37;49.85;99163.00;5053430;28;20496;-79
2023/07/23 09:06:44;;;;;;;4.55;3.78;;;;;;;29.38;49.28;99175.41;5052701;28;20214;-79
2023/07/23 09:09:11;;;;;;;5.45;4.18;;;;;;;29.25;48.74;99174.34;5053061;28;20032;-80
2023/07/23 09:11:37;;;;;;;4.40;3.95;;;;;;;29.07;49.65;99185.63;5053094;28;20083;-78
2023/07/23 09:14:10;;;;;;;4.30;3.90;;;;;;;29.02;49.59;99181.91;5053095;28;20021;-79
2023/07/23 09:16:38;;;;;;;4.70;3.45;;;;;;;28.97;49.36;99184.38;5052571;28;20052;-80
2023/07/23 09:19:04;;;;;;;4.20;3.80;;;;;;;28.88;48.52;99170.31;5052754;28;20025;-79
2023/07/23 09:21:29;;;;;;;3.97;3.63;;;;;;;28.82;49.14;99171.09;5053067;28;20033;-80
2023/07/23 09:23:57;;;;;;;5.53;3.42;;;;;;;28.74;49.06;99173.97;5052517;28;20113;-80
2023/07/23 09:26:26;;;;;;;3.60;3.30;;;;;;;28.70;48.82;99164.69;5052956;28;20036;-80
2023/07/23 09:28:53;;;;;;;3.97;3.67;;;;;;;28.74;48.55;99166.75;5052115;28;20036;-80
2023/07/23 09:31:30;;;;;;;3.97;3.60;;;;;;;28.67;48.66;99152.50;5052773;28;20052;-79
2023/07/23 09:33:58;;;;;;;4.15;3.75;;;;;;;28.86;48.29;99158.94;5052383;28;20033;-80
2023/07/23 09:36:25;;;;;;;6.93;4.07;;;;;;;28.96;47.14;99166.63;5052577;28;20108;-80
2023/07/23 09:38:53;;;;;;;4.13;3.83;;;;;;;29.11;47.12;99178.00;5052243;28;20025;-80
2023/07/23 09:41:20;;;;;;;3.75;3.42;;;;;;;29.18;47.63;99178.88;5034573;28;20407;-79
2023/07/23 09:43:45;;;;;;;4.40;3.83;;;;;;;29.25;47.73;99160.94;5052061;28;20024;-80
2023/07/23 09:46:11;;;;;;;3.47;3.17;;;;;;;29.43;47.92;99157.66;5052833;28;20025;-80
2023/07/23 09:48:44;;;;;;;3.15;2.83;;;;;;;29.70;47.48;99176.47;5052333;28;20590;-79
2023/07/23 09:51:10;;;;;;;4.32;3.45;;;;;;;29.81;46.90;99163.25;5032727;28;20384;-80
2023/07/23 09:53:39;;;;;;;4.10;3.55;;;;;;;29.63;47.02;99132.72;5032231;28;20022;-80
2023/07/23 09:56:05;;;;;;;5.15;4.25;;;;;;;29.46;46.77;99119.69;5051936;28;20032;-80
2023/07/23 09:58:34;;;;;;;5.63;4.28;;;;;;;29.65;46.50;99152.94;5052272;28;20377;-80
2023/07/23 10:00:59;;;;;;;4.75;3.78;;;;;;;29.60;47.00;99143.88;5051869;28;20025;-80
2023/07/23 10:03:25;;;;;;;5.55;4.28;;;;;;;29.76;46.30;99170.28;5052262;28;20469;-80
2023/07/23 10:05:51;;;;;;;7.22;5.07;;;;;;;29.70;46.59;99174.59;5051839;28;20055;-80
2023/07/23 10:08:20;;;;;;;5.32;4.82;;;;;;;29.50;46.50;99161.19;5052012;28;20025;-79
2023/07/23 10:10:45;;;;;;;5.05;4.60;;;;;;;29.51;46.32;99157.44;5052357;28;20179;-79
2023/07/23 10:13:10;;;;;;;4.60;4.20;;;;;;;29.40;47.38;99154.53;5051933;28;20100;-79
2023/07/23 10:15:37;;;;;;;5.75;5.05;;;;;;;29.21;47.82;99140.09;5051783;28;20060;-80
2023/07/23 10:18:04;;;;;;;5.85;4.97;;;;;;;29.28;48.23;99154.31;5031898;28;20076;-80
2023/07/23 10:20:32;;;;;;;6.63;5.03;;;;;;;29.15;47.96;99139.03;5031877;28;20071;-79
2023/07/23 10:22:58;;;;;;;5.22;4.72;;;;;;;29.31;48.10;99141.34;5031539;28;20029;-79
2023/07/23 10:25:31;;;;;;;4.68;4.20;;;;;;;29.31;48.53;99140.50;5031706;28;20029;-79
2023/07/23 10:27:59;;;;;;;5.88;4.10;;;;;;;29.26;48.29;99121.53;5031742;28;20029;-79
2023/07/23 10:30:26;;;;;;;4.90;4.47;;;;;;;29.37;48.54;99130.81;5031833;28;20473;-79
2023/07/23 10:33:09;;;;;;;4.53;3.75;;;;;;;29.55;48.30;99147.13;5031516;28;20025;-80
2023/07/23 10:35:53;;;;;;;4.82;4.13;;;;;;;29.71;47.73;99146.75;5031572;28;20473;-80
2023/07/23 10:38:20;;;;;;;5.97;4.03;;;;;;;29.66;47.37;99114.31;5031812;28;20120;-80
2023/07/23 10:40:46;;;;;;;4.78;4.22;;;;;;;29.88;47.83;99133.72;5031355;28;20029;-80
2023/07/23 10:43:12;;;;;;;4.45;4.00;;;;;;;29.97;47.13;99129.78;5031619;28;20037;-79
2023/07/23 10:45:37;;;;;;;4.25;3.75;;;;;;;29.85;47.37;99112.66;5031437;28;20135;-79
2023/07/23 10:48:04;;;;;;;4.30;3.78;;;;;;;30.01;47.63;99127.50;5031040;28;20474;-79
2023/07/23 10:50:30;;;;;;;4.25;3.85;;;;;;;29.95;47.25;99126.47;5031640;28;20040;-80
2023/07/23 10:53:15;;;;;;;4.28;3.88;;;;;;;29.84;47.48;99108.34;5031461;28;20039;-80
2023/07/23 10:55:50;;;;;;;5.60;3.67;;;;;;;29.83;47.36;99101.28;5031388;28;20033;-79
2023/07/23 10:58:20;;;;;;;4.05;3.70;;;;;;;29.82;47.65;99100.47;5031531;28;20033;-79
2023/07/23 11:00:57;;;;;;;4.30;3.80;;;;;;;29.82;47.81;99102.34;5031366;28;20103;-80
2023/07/23 11:03:23;;;;;;;4.35;3.95;;;;;;;29.84;47.26;99119.06;5031767;28;20030;-81
2023/07/23 11:05:50;;;;;;;3.92;3.58;;;;;;;29.62;47.53;99088.09;5030747;28;20033;-82
2023/07/23 11:08:19;;;;;;;5.00;4.18;;;;;;;29.75;48.36;99113.09;5031455;28;20038;-82
2023/07/23 11:10:56;;;;;;;4.22;3.92;;;;;;;29.60;47.91;99099.06;5031065;28;20033;-81
2023/07/23 11:13:23;;;;;;;4.20;3.80;;;;;;;29.59;48.20;99105.47;5031564;28;20095;-82
2023/07/23 11:15:48;;;;;;;4.03;3.63;;;;;;;29.51;48.86;99106.47;5032459;28;20538;-81
2023/07/23 11:18:14;;;;;;;3.60;3.30;;;;;;;29.20;48.91;99064.19;5051203;28;20163;-81
2023/07/23 11:20:50;;;;;;;4.38;3.90;;;;;;;29.26;48.56;99092.03;5050984;28;20041;-81
2023/07/23 11:23:20;;;;;;;3.85;3.25;;;;;;;29.17;48.89;99082.53;5051404;28;20095;-81
2023/07/23 11:25:47;;;;;;;4.15;3.35;;;;;;;29.34;49.03;99097.19;5049874;28;20029;-81
2023/07/23 11:28:16;;;;;;;4.47;3.28;;;;;;;29.26;48.24;99071.38;5051239;28;20037;-81